Time;durP1;ratioP1;P1;durP2;ratioP2;P2;SDS_P1;SDS_P2;PMS_P1;PMS_P2;Temp;Humidity;BMP_temperature;BMP_pressure;BME280_temperature;BME280_humidity;BME280_pressure;Samples;Min_cycle;Max_cycle;Signal;HPM_P1;HPM_P2
2023/08/05 00:02:18;;;;;;;1999.90;999.90;;;16.40;99.90;;;;;;5039382;28;20048;-76
2023/08/05 00:04:44;;;;;;;1999.90;999.90;;;16.50;99.90;;;;;;5056262;28;20056;-76
2023/08/05 00:07:10;;;;;;;1999.90;999.90;;;16.40;99.90;;;;;;5056090;28;20368;-77
2023/08/05 00:09:35;;;;;;;1999.90;999.90;;;16.50;99.90;;;;;;5056655;28;20087;-76
2023/08/05 00:12:01;;;;;;;1999.90;999.90;;;16.40;99.90;;;;;;5039420;28;20050;-77
2023/08/05 00:14:27;;;;;;;1999.90;999.90;;;16.40;99.90;;;;;;5038998;28;20452;-76
2023/08/05 00:16:52;;;;;;;1999.90;999.90;;;16.40;99.90;;;;;;5055944;28;20048;-77
2023/08/05 00:19:18;;;;;;;1999.90;999.90;;;16.40;99.90;;;;;;5038834;28;20095;-77
2023/08/05 00:21:44;;;;;;;1999.90;999.90;;;16.40;99.90;;;;;;5055890;28;20433;-77
2023/08/05 00:24:10;;;;;;;1999.90;999.90;;;16.40;99.90;;;;;;5055849;28;20403;-77
2023/08/05 00:26:36;;;;;;;1999.90;999.90;;;16.30;99.90;;;;;;5039190;28;20131;-77
2023/08/05 00:29:01;;;;;;;1999.90;999.90;;;16.40;99.90;;;;;;5055589;28;20048;-77
2023/08/05 00:31:27;;;;;;;1999.90;999.90;;;16.40;99.90;;;;;;5039235;28;20044;-77
2023/08/05 00:33:53;;;;;;;1999.90;999.90;;;16.30;99.90;;;;;;5022717;28;20475;-77
2023/08/05 00:36:18;;;;;;;1999.90;999.90;;;16.40;99.90;;;;;;5055481;28;20555;-77
2023/08/05 00:38:44;;;;;;;1999.90;999.90;;;16.40;99.90;;;;;;5038846;28;20079;-76
2023/08/05 00:41:10;;;;;;;1999.90;999.90;;;16.30;99.90;;;;;;5055805;28;20135;-77
2023/08/05 00:43:35;;;;;;;1999.90;999.90;;;16.30;99.90;;;;;;5055751;28;20041;-76
2023/08/05 00:46:01;;;;;;;1999.90;999.90;;;16.30;99.90;;;;;;5022564;28;20037;-76
2023/08/05 00:48:27;;;;;;;1999.90;999.90;;;16.30;99.90;;;;;;5039125;28;20434;-76
2023/08/05 00:50:54;;;;;;;1999.90;999.90;;;16.30;99.90;;;;;;5055591;28;20044;-76
2023/08/05 00:53:24;;;;;;;1999.90;999.90;;;16.20;99.90;;;;;;5056295;28;20044;-76
2023/08/05 00:55:51;;;;;;;1999.90;999.90;;;16.20;99.90;;;;;;5038684;28;20040;-76
2023/08/05 00:58:19;;;;;;;1999.90;999.90;;;16.20;99.90;;;;;;5055372;28;20106;-76
2023/08/05 01:00:44;;;;;;;1999.90;999.90;;;16.20;99.90;;;;;;5073797;28;20431;-77
2023/08/05 01:03:10;;;;;;;1999.90;999.90;;;16.20;99.90;;;;;;5056264;28;20040;-77
2023/08/05 01:05:38;;;;;;;1999.90;999.90;;;16.20;99.90;;;;;;5055499;28;20044;-77
2023/08/05 01:08:05;;;;;;;1999.90;999.90;;;16.20;99.90;;;;;;5055638;28;20132;-77
2023/08/05 01:10:31;;;;;;;1999.90;999.90;;;16.20;99.90;;;;;;5055398;28;20048;-77
2023/08/05 01:12:56;;;;;;;1999.90;999.90;;;16.20;99.90;;;;;;5056200;28;20122;-77
2023/08/05 01:15:22;;;;;;;1999.90;999.90;;;16.10;99.90;;;;;;5038509;28;20040;-77
2023/08/05 01:17:52;;;;;;;1999.90;999.90;;;16.10;99.90;;;;;;5055931;28;20048;-77
2023/08/05 01:20:19;;;;;;;1999.90;999.90;;;16.10;99.90;;;;;;5073843;28;20048;-76
2023/08/05 01:22:51;;;;;;;1999.90;999.90;;;16.10;99.90;;;;;;5038906;28;20059;-76
2023/08/05 01:25:30;;;;;;;1999.90;999.90;;;16.00;99.90;;;;;;5055989;28;20048;-76
2023/08/05 01:27:58;;;;;;;1999.90;999.90;;;16.00;99.90;;;;;;5038625;28;20131;-76
2023/08/05 01:30:25;;;;;;;1999.90;999.90;;;15.90;99.90;;;;;;5039418;28;20052;-76
2023/08/05 01:32:55;;;;;;;1999.90;999.90;;;15.90;99.90;;;;;;5055415;28;20044;-76
2023/08/05 01:35:21;;;;;;;1999.90;999.90;;;15.90;99.90;;;;;;5055268;28;20124;-76
2023/08/05 01:37:47;;;;;;;1999.90;999.90;;;15.90;99.90;;;;;;5055191;28;20052;-77
2023/08/05 01:40:13;;;;;;;1999.90;999.90;;;15.90;99.90;;;;;;5056420;28;20135;-77
2023/08/05 01:42:39;;;;;;;1999.90;999.90;;;15.90;99.90;;;;;;5058663;28;20044;-77
2023/08/05 01:45:05;;;;;;;1999.90;999.90;;;15.90;99.90;;;;;;5042014;28;20052;-76
2023/08/05 01:47:31;;;;;;;1999.90;999.90;;;15.80;99.90;;;;;;5059371;28;20127;-77
2023/08/05 01:49:57;;;;;;;1999.90;999.90;;;15.80;99.90;;;;;;5075856;28;20131;-77
2023/08/05 01:52:22;;;;;;;1999.90;999.90;;;15.80;99.90;;;;;;5041954;28;20036;-77
2023/08/05 01:54:48;;;;;;;1999.90;999.90;;;15.80;99.90;;;;;;5059109;28;20045;-77
2023/08/05 01:57:14;;;;;;;1999.90;999.90;;;15.70;99.90;;;;;;5058714;28;20041;-76
2023/08/05 01:59:39;;;;;;;1999.90;999.90;;;15.70;99.90;;;;;;5059209;28;20487;-77
2023/08/05 02:02:05;;;;;;;1999.90;999.90;;;15.70;99.90;;;;;;5041501;28;20080;-77
2023/08/05 02:04:31;;;;;;;1999.90;999.90;;;15.60;99.90;;;;;;5059066;28;20055;-77
2023/08/05 02:06:57;;;;;;;1999.90;999.90;;;15.60;99.90;;;;;;5059074;28;20048;-77
2023/08/05 02:09:22;;;;;;;1999.90;999.90;;;15.60;99.90;;;;;;5057886;28;20040;-77
2023/08/05 02:11:48;;;;;;;1999.90;999.90;;;15.50;99.90;;;;;;5041566;28;20044;-76
2023/08/05 02:14:14;;;;;;;1999.90;999.90;;;15.50;99.90;;;;;;5041412;28;20056;-77
2023/08/05 02:16:39;;;;;;;1999.90;999.90;;;15.50;99.90;;;;;;5041380;28;20158;-77
2023/08/05 02:19:05;;;;;;;1999.90;999.90;;;15.40;99.90;;;;;;5022737;28;20056;-77
2023/08/05 02:21:31;;;;;;;1999.90;999.90;;;15.40;99.90;;;;;;5041014;28;20049;-76
2023/08/05 02:23:57;;;;;;;1999.90;999.90;;;15.40;99.90;;;;;;5041567;28;20044;-77
2023/08/05 02:26:22;;;;;;;1999.90;999.90;;;15.40;99.90;;;;;;5075233;28;20143;-76
2023/08/05 02:28:48;;;;;;;1999.90;999.90;;;15.30;99.90;;;;;;5041241;28;20051;-77
2023/08/05 02:31:14;;;;;;;1999.90;999.90;;;15.30;99.90;;;;;;5058021;28;20056;-77
2023/08/05 02:33:41;;;;;;;1999.90;999.90;;;15.20;99.90;;;;;;5041221;28;20053;-77
2023/08/05 02:36:07;;;;;;;1999.90;999.90;;;15.20;99.90;;;;;;5058223;28;20044;-77
2023/08/05 02:38:32;;;;;;;1999.90;999.90;;;15.20;99.90;;;;;;5024644;28;20369;-77
2023/08/05 02:40:58;;;;;;;1999.90;999.90;;;15.10;99.90;;;;;;5057922;28;20052;-77
2023/08/05 02:43:24;;;;;;;1999.90;999.90;;;15.10;99.90;;;;;;5057504;28;20056;-77
2023/08/05 02:45:54;;;;;;;1999.90;999.90;;;15.00;99.90;;;;;;5040916;28;20414;-77
2023/08/05 02:48:24;;;;;;;1999.90;999.90;;;15.00;99.90;;;;;;5057743;28;20151;-78
2023/08/05 02:50:50;;;;;;;1999.90;999.90;;;14.90;99.90;;;;;;5024355;28;20463;-77
2023/08/05 02:53:17;;;;;;;1999.90;999.90;;;15.00;99.90;;;;;;5040974;28;20105;-78
2023/08/05 02:55:42;;;;;;;1999.90;999.90;;;14.90;99.90;;;;;;5040493;28;20123;-77
2023/08/05 02:58:08;;;;;;;1999.90;999.90;;;14.90;99.90;;;;;;5057202;28;20045;-77
2023/08/05 03:00:34;;;;;;;1999.90;999.90;;;15.60;99.90;;;;;;5040866;28;20044;-77
2023/08/05 03:03:00;;;;;;;1999.90;999.90;;;14.90;99.90;;;;;;5074788;28;20049;-77
2023/08/05 03:05:26;;;;;;;1999.90;999.90;;;14.90;99.90;;;;;;5057122;28;20464;-76
2023/08/05 03:07:51;;;;;;;1999.90;999.90;;;14.90;99.90;;;;;;5040426;28;20044;-76
2023/08/05 03:10:17;;;;;;;1999.90;999.90;;;14.90;99.90;;;;;;5057812;28;20153;-77
2023/08/05 03:12:43;;;;;;;1999.90;999.90;;;14.90;99.90;;;;;;5057335;28;20048;-76
2023/08/05 03:15:09;;;;;;;1999.90;999.90;;;14.90;99.90;;;;;;5057528;28;20044;-77
2023/08/05 03:17:35;;;;;;;1999.90;999.90;;;14.90;99.90;;;;;;5057723;28;20045;-77
2023/08/05 03:20:05;;;;;;;1999.90;999.90;;;14.80;99.90;;;;;;5039741;28;20090;-77
2023/08/05 03:22:34;;;;;;;1999.90;999.90;;;14.80;99.90;;;;;;5057073;28;20056;-77
2023/08/05 03:25:00;;;;;;;1999.90;999.90;;;14.80;99.90;;;;;;5039999;28;20483;-76
2023/08/05 03:27:25;;;;;;;1999.90;999.90;;;14.80;99.90;;;;;;5056747;28;20052;-77
2023/08/05 03:29:51;;;;;;;1999.90;999.90;;;14.80;99.90;;;;;;5040117;28;20496;-77
2023/08/05 03:32:17;;;;;;;1999.90;999.90;;;14.80;99.90;;;;;;5056800;28;20353;-77
2023/08/05 03:34:42;;;;;;;1999.90;999.90;;;14.80;99.90;;;;;;5056549;28;20131;-77
2023/08/05 03:37:08;;;;;;;1999.90;999.90;;;14.80;99.90;;;;;;5056789;28;20045;-77
2023/08/05 03:39:34;;;;;;;1999.90;999.90;;;14.80;99.90;;;;;;5056559;28;20044;-78
2023/08/05 03:41:59;;;;;;;1999.90;999.90;;;14.80;99.90;;;;;;5039535;28;20037;-77
2023/08/05 03:44:25;;;;;;;1999.90;999.90;;;14.80;99.90;;;;;;5056190;28;20131;-77
2023/08/05 03:46:51;;;;;;;1999.90;999.90;;;14.80;99.90;;;;;;5057164;28;20052;-77
2023/08/05 03:49:17;;;;;;;1999.90;999.90;;;14.80;99.90;;;;;;5040635;28;20070;-77
2023/08/05 03:51:42;;;;;;;1999.90;999.90;;;14.70;99.90;;;;;;5056257;28;20048;-77
2023/08/05 03:54:08;;;;;;;1999.90;999.90;;;14.80;99.90;;;;;;5056080;28;20052;-77
2023/08/05 03:56:34;;;;;;;1999.90;999.90;;;14.70;99.90;;;;;;5023683;28;20460;-76
2023/08/05 03:58:59;;;;;;;1999.90;999.90;;;14.70;99.90;;;;;;5056951;28;20117;-76
2023/08/05 04:01:26;;;;;;;1999.90;999.90;;;14.70;99.90;;;;;;5040355;28;20076;-77
2023/08/05 04:03:52;;;;;;;1999.90;999.90;;;14.70;99.90;;;;;;5038739;28;20083;-77
2023/08/05 04:06:21;;;;;;;1999.90;999.90;;;14.70;99.90;;;;;;5056596;28;20084;-76
2023/08/05 04:08:54;;;;;;;1999.90;999.90;;;14.70;99.90;;;;;;5056785;28;20055;-77
2023/08/05 04:11:20;;;;;;;1999.90;999.90;;;14.70;99.90;;;;;;5039843;28;20127;-77
2023/08/05 04:13:47;;;;;;;1999.90;999.90;;;14.70;99.90;;;;;;5039403;28;20059;-76
2023/08/05 04:16:14;;;;;;;1999.90;999.90;;;14.70;99.90;;;;;;5056447;28;20075;-77
2023/08/05 04:18:42;;;;;;;1999.90;999.90;;;14.70;99.90;;;;;;5055571;28;20048;-76
2023/08/05 04:21:10;;;;;;;1999.90;999.90;;;14.70;99.90;;;;;;5007140;28;20068;-76
2023/08/05 04:23:36;;;;;;;1999.90;999.90;;;14.70;99.90;;;;;;5055741;28;20068;-76
2023/08/05 04:26:05;;;;;;;1999.90;999.90;;;14.70;99.90;;;;;;5055771;28;20049;-77
2023/08/05 04:28:30;;;;;;;1999.90;999.90;;;14.70;99.90;;;;;;5055809;28;20045;-77
2023/08/05 04:30:57;;;;;;;1999.90;999.90;;;14.80;99.90;;;;;;5055843;28;20122;-77
2023/08/05 04:33:25;;;;;;;1999.90;999.90;;;14.70;99.90;;;;;;5055743;28;20044;-77
2023/08/05 04:35:52;;;;;;;1999.90;999.90;;;14.70;99.90;;;;;;5073374;28;20044;-77
2023/08/05 04:38:18;;;;;;;1999.90;999.90;;;14.80;99.90;;;;;;5039902;28;20040;-76
2023/08/05 04:40:44;;;;;;;1999.90;999.90;;;14.70;99.90;;;;;;5055726;28;20440;-76
2023/08/05 04:43:10;;;;;;;1999.90;999.90;;;14.70;99.90;;;;;;5039052;28;20444;-77
2023/08/05 04:45:36;;;;;;;1999.90;999.90;;;14.70;99.90;;;;;;5055688;28;20056;-77
2023/08/05 04:48:04;;;;;;;1999.90;999.90;;;14.70;99.90;;;;;;5038981;28;20059;-77
2023/08/05 04:50:29;;;;;;;1999.90;999.90;;;14.70;99.90;;;;;;5055499;28;20064;-76
2023/08/05 04:52:55;;;;;;;1999.90;999.90;;;14.70;99.90;;;;;;5039006;28;20040;-77
2023/08/05 04:55:21;;;;;;;1999.90;999.90;;;14.70;99.90;;;;;;5055257;28;20045;-77
2023/08/05 04:57:52;;;;;;;1999.90;999.90;;;14.70;99.90;;;;;;5022552;28;20047;-78
2023/08/05 05:00:18;;;;;;;1999.90;999.90;;;14.60;99.90;;;;;;5056373;28;20051;-77
2023/08/05 05:02:43;;;;;;;1999.90;999.90;;;14.60;99.90;;;;;;5056298;28;20052;-77
2023/08/05 05:05:09;;;;;;;1999.90;999.90;;;14.60;99.90;;;;;;5055445;28;20396;-77
2023/08/05 05:07:35;;;;;;;1999.90;999.90;;;14.60;99.90;;;;;;5038830;28;20391;-77
2023/08/05 05:10:01;;;;;;;1999.90;999.90;;;14.60;99.90;;;;;;5038396;28;20051;-77
2023/08/05 05:12:27;;;;;;;1999.90;999.90;;;14.60;99.90;;;;;;5055378;28;20045;-76
2023/08/05 05:14:52;;;;;;;1999.90;999.90;;;14.60;99.90;;;;;;5056939;28;20091;-76
2023/08/05 05:17:18;;;;;;;1999.90;999.90;;;14.60;99.90;;;;;;5059480;28;20080;-77
2023/08/05 05:19:44;;;;;;;1999.90;999.90;;;14.70;99.90;;;;;;5041868;28;20049;-77
2023/08/05 05:22:16;;;;;;;1999.90;999.90;;;14.70;99.90;;;;;;5059137;28;20495;-77
2023/08/05 05:24:41;;;;;;;1999.90;999.90;;;14.70;99.90;;;;;;5059828;28;20115;-77
2023/08/05 05:27:07;;;;;;;1999.90;999.90;;;14.80;99.90;;;;;;5059335;28;20044;-77
2023/08/05 05:29:33;;;;;;;1999.90;999.90;;;14.80;99.90;;;;;;5042401;28;20534;-76
2023/08/05 05:31:59;;;;;;;1999.90;999.90;;;14.90;99.90;;;;;;5042330;28;20086;-76
2023/08/05 05:34:24;;;;;;;1999.90;999.90;;;14.90;99.90;;;;;;5042198;28;20051;-76
2023/08/05 05:36:50;;;;;;;1999.90;999.90;;;15.00;99.90;;;;;;5059158;28;20040;-76
2023/08/05 05:39:16;;;;;;;1999.90;999.90;;;15.00;99.90;;;;;;5076695;28;20051;-76
2023/08/05 05:41:41;;;;;;;1999.90;999.90;;;15.10;99.90;;;;;;5059597;28;20468;-76
2023/08/05 05:44:07;;;;;;;1999.90;999.90;;;15.20;99.90;;;;;;5058391;28;20068;-77
2023/08/05 05:46:33;;;;;;;1999.90;999.90;;;15.30;99.90;;;;;;5058385;28;20063;-76
2023/08/05 05:48:59;;;;;;;1999.90;999.90;;;15.40;99.90;;;;;;5058880;28;20048;-76
2023/08/05 05:51:24;;;;;;;1999.90;999.90;;;15.50;99.90;;;;;;5041921;28;20369;-76
2023/08/05 05:53:55;;;;;;;1999.90;999.90;;;15.50;99.90;;;;;;5041812;28;20044;-76
2023/08/05 05:56:20;;;;;;;1999.90;999.90;;;15.60;99.90;;;;;;5058941;28;20047;-76
2023/08/05 05:58:46;;;;;;;1999.90;999.90;;;15.70;99.90;;;;;;5058492;28;20074;-76
2023/08/05 06:01:13;;;;;;;1999.90;999.90;;;15.80;99.90;;;;;;5058144;28;20136;-76
2023/08/05 06:03:39;;;;;;;1999.90;999.90;;;15.80;99.90;;;;;;5059150;28;20118;-76
2023/08/05 06:06:04;;;;;;;1999.90;999.90;;;15.90;99.90;;;;;;5059015;28;20087;-77
2023/08/05 06:08:30;;;;;;;1999.90;999.90;;;15.90;99.90;;;;;;5058995;28;20547;-77
2023/08/05 06:11:01;;;;;;;1999.90;999.90;;;15.90;99.90;;;;;;5041349;28;20444;-77
2023/08/05 06:13:26;;;;;;;1999.90;999.90;;;15.90;99.90;;;;;;5058943;28;20123;-77
2023/08/05 06:15:55;;;;;;;1999.90;999.90;;;15.90;99.90;;;;;;5041290;28;20076;-77
2023/08/05 06:18:21;;;;;;;1999.90;999.90;;;15.90;99.90;;;;;;5057680;28;20055;-77
2023/08/05 06:20:50;;;;;;;1999.90;999.90;;;15.90;99.90;;;;;;5041113;28;20052;-77
2023/08/05 06:23:16;;;;;;;1999.90;999.90;;;15.90;99.90;;;;;;5058172;28;20045;-77
2023/08/05 06:25:42;;;;;;;1999.90;999.90;;;15.90;99.90;;;;;;5058202;28;20483;-77
2023/08/05 06:28:08;;;;;;;1999.90;999.90;;;15.90;99.90;;;;;;5058057;28;20451;-76
2023/08/05 06:30:34;;;;;;;1999.90;999.90;;;15.90;99.90;;;;;;5057850;28;20056;-77
2023/08/05 06:33:00;;;;;;;1999.90;999.90;;;15.90;99.90;;;;;;5058581;28;20098;-76
2023/08/05 06:35:26;;;;;;;1999.90;999.90;;;15.90;99.90;;;;;;5040993;28;20053;-76
2023/08/05 06:37:52;;;;;;;1999.90;999.90;;;15.90;99.90;;;;;;5057658;28;20492;-77
2023/08/05 06:40:18;;;;;;;1999.90;999.90;;;15.90;99.90;;;;;;5057673;28;20098;-78
2023/08/05 06:42:44;;;;;;;1999.90;999.90;;;15.90;99.90;;;;;;5057626;28;20530;-77
2023/08/05 06:45:09;;;;;;;1999.90;999.90;;;15.90;99.90;;;;;;5057541;28;20056;-77
2023/08/05 06:47:35;;;;;;;1999.90;999.90;;;16.00;99.90;;;;;;5057751;28;20438;-77
2023/08/05 06:50:07;;;;;;;1999.90;999.90;;;16.00;99.90;;;;;;5057415;28;20392;-76
2023/08/05 06:52:33;;;;;;;1999.90;999.90;;;16.00;99.90;;;;;;5040850;28;20144;-77
2023/08/05 06:55:03;;;;;;;1999.90;999.90;;;16.10;99.90;;;;;;5057110;28;20051;-77
2023/08/05 06:57:31;;;;;;;1999.90;999.90;;;16.10;99.90;;;;;;5040653;28;20498;-77
2023/08/05 06:59:57;;;;;;;1999.90;999.90;;;16.20;99.90;;;;;;5057069;28;20124;-78
2023/08/05 07:02:24;;;;;;;1999.90;999.90;;;16.20;99.90;;;;;;5057524;28;20091;-77
2023/08/05 07:04:53;;;;;;;1999.90;999.90;;;16.20;99.90;;;;;;5057498;28;20098;-77
2023/08/05 07:07:19;;;;;;;1999.90;999.90;;;16.20;99.90;;;;;;5040321;28;20049;-77
2023/08/05 07:09:45;;;;;;;1999.90;999.90;;;16.20;99.90;;;;;;5041346;28;20434;-77
2023/08/05 07:12:11;;;;;;;1999.90;999.90;;;16.20;99.90;;;;;;5057031;28;20044;-77
2023/08/05 07:14:38;;;;;;;1999.90;999.90;;;16.30;99.90;;;;;;5024587;28;20041;-77
2023/08/05 07:17:04;;;;;;;1999.90;999.90;;;16.30;99.90;;;;;;5056634;28;20071;-76
2023/08/05 07:19:30;;;;;;;1999.90;999.90;;;16.30;99.90;;;;;;5039934;28;20063;-77
2023/08/05 07:21:55;;;;;;;1999.90;999.90;;;16.40;99.90;;;;;;5056824;28;20048;-77
2023/08/05 07:24:21;;;;;;;1999.90;999.90;;;16.50;99.90;;;;;;5040882;28;20368;-77
2023/08/05 07:26:47;;;;;;;1999.90;999.90;;;16.90;99.90;;;;;;5040216;28;20056;-78
2023/08/05 07:29:12;;;;;;;1999.90;999.90;;;16.50;99.90;;;;;;5040140;28;20464;-78
2023/08/05 07:31:38;;;;;;;1999.90;999.90;;;16.60;99.90;;;;;;5057498;28;20076;-77
2023/08/05 07:34:04;;;;;;;1999.90;999.90;;;16.70;99.90;;;;;;5056546;28;20373;-77
2023/08/05 07:36:31;;;;;;;1999.90;999.90;;;16.70;99.90;;;;;;5023723;28;20051;-76
2023/08/05 07:38:58;;;;;;;1999.90;999.90;;;16.80;99.90;;;;;;5039253;28;20044;-77
2023/08/05 07:41:26;;;;;;;1999.90;999.90;;;16.90;99.90;;;;;;5040931;28;20460;-76
2023/08/05 07:43:57;;;;;;;1999.90;999.90;;;16.90;99.90;;;;;;5056418;28;20480;-76
2023/08/05 07:46:25;;;;;;;1999.90;999.90;;;17.00;99.90;;;;;;5039902;28;20052;-76
2023/08/05 07:48:52;;;;;;;1999.90;999.90;;;17.00;99.90;;;;;;5040374;28;20049;-76
2023/08/05 07:51:19;;;;;;;1999.90;999.90;;;17.00;99.90;;;;;;5074048;28;20048;-76
2023/08/05 07:53:47;;;;;;;1999.90;999.90;;;17.10;99.90;;;;;;5056141;28;20045;-76
2023/08/05 07:56:15;;;;;;;1999.90;999.90;;;17.10;99.90;;;;;;5039496;28;20052;-76
2023/08/05 07:58:45;;;;;;;1999.90;999.90;;;17.10;99.90;;;;;;5056595;28;20082;-77
2023/08/05 08:01:13;;;;;;;1999.90;999.90;;;17.20;99.90;;;;;;5056407;28;20044;-76
2023/08/05 08:03:41;;;;;;;1999.90;999.90;;;17.20;99.90;;;;;;5040106;28;20048;-76
2023/08/05 08:06:07;;;;;;;1999.90;999.90;;;17.20;99.90;;;;;;5056296;28;20052;-77
2023/08/05 08:08:33;;;;;;;1999.90;999.90;;;17.30;99.90;;;;;;5056220;28;20131;-81
2023/08/05 08:10:59;;;;;;;1999.90;999.90;;;17.30;99.90;;;;;;5056209;28;20044;-76
2023/08/05 08:13:25;;;;;;;1999.90;999.90;;;17.30;99.90;;;;;;5056559;28;20135;-76
2023/08/05 08:15:50;;;;;;;1999.90;999.90;;;17.40;99.90;;;;;;5055957;28;20048;-76
2023/08/05 08:18:16;;;;;;;1999.90;999.90;;;17.50;99.90;;;;;;5040094;28;20083;-76
2023/08/05 08:20:51;;;;;;;1999.90;999.90;;;17.50;99.90;;;;;;5056364;28;20459;-76
2023/08/05 08:23:17;;;;;;;1999.90;999.90;;;17.60;99.90;;;;;;5039778;28;20048;-76
2023/08/05 08:25:43;;;;;;;1999.90;999.90;;;17.70;99.90;;;;;;5055898;28;20063;-76
2023/08/05 08:28:08;;;;;;;1999.90;999.90;;;17.80;99.90;;;;;;5040223;28;20040;-76
2023/08/05 08:30:34;;;;;;;1999.90;999.90;;;17.80;99.90;;;;;;5074448;28;20375;-76
2023/08/05 08:33:00;;;;;;;1999.90;999.90;;;17.90;99.90;;;;;;5073606;28;20392;-76
2023/08/05 08:35:25;;;;;;;1999.90;999.90;;;17.90;99.90;;;;;;5055815;28;20110;-76
2023/08/05 08:37:51;;;;;;;1999.90;999.90;;;18.00;99.90;;;;;;5074344;28;20052;-76
2023/08/05 08:40:17;;;;;;;1999.90;999.90;;;18.00;99.90;;;;;;5055919;28;20073;-76
2023/08/05 08:42:44;;;;;;;1999.90;999.90;;;18.00;99.90;;;;;;5073573;28;20048;-77
2023/08/05 08:45:14;;;;;;;1999.90;999.90;;;18.10;99.90;;;;;;5022946;28;20478;-77
2023/08/05 08:47:40;;;;;;;1999.90;999.90;;;18.10;99.90;;;;;;5056183;28;20041;-76
2023/08/05 08:50:07;;;;;;;1999.90;999.90;;;18.10;99.90;;;;;;5041280;28;20036;-74
2023/08/05 08:52:34;;;;;;;1999.90;999.90;;;18.20;99.90;;;;;;5044111;28;20052;-74
2023/08/05 08:55:02;;;;;;;1999.90;999.90;;;18.20;99.90;;;;;;5059625;28;20041;-75
2023/08/05 08:57:28;;;;;;;1999.90;999.90;;;18.30;99.90;;;;;;5078584;28;20114;-74
2023/08/05 08:59:54;;;;;;;1999.90;999.90;;;18.30;99.90;;;;;;5059465;28;20487;-74
2023/08/05 09:02:24;;;;;;;1999.90;999.90;;;18.40;99.90;;;;;;5059713;28;20056;-75
2023/08/05 09:04:52;;;;;;;1999.90;999.90;;;18.40;99.90;;;;;;5060035;28;20461;-74
2023/08/05 09:07:25;;;;;;;1999.90;999.90;;;18.40;99.90;;;;;;5077326;28;20087;-74
2023/08/05 09:09:51;;;;;;;1999.90;999.90;;;18.40;99.90;;;;;;5077283;28;20079;-74
2023/08/05 09:12:16;;;;;;;1999.90;999.90;;;18.40;99.90;;;;;;5059477;28;20103;-74
2023/08/05 09:14:42;;;;;;;1999.90;999.90;;;18.40;99.90;;;;;;5059453;28;20078;-74
2023/08/05 09:17:11;;;;;;;1999.90;999.90;;;18.50;99.90;;;;;;5077021;28;20052;-74
2023/08/05 09:19:42;;;;;;;1999.90;999.90;;;18.50;99.90;;;;;;5076818;28;20052;-74
2023/08/05 09:22:07;;;;;;;1999.90;999.90;;;18.60;99.90;;;;;;5059080;28;20052;-74
2023/08/05 09:24:34;;;;;;;1999.90;999.90;;;18.60;99.90;;;;;;5076430;28;20056;-75
2023/08/05 09:27:01;;;;;;;1999.90;999.90;;;18.70;99.90;;;;;;5076954;28;20071;-75
2023/08/05 09:29:28;;;;;;;1999.90;999.90;;;18.70;99.90;;;;;;5042372;28;20045;-76
2023/08/05 09:32:02;;;;;;;1999.90;999.90;;;18.70;99.90;;;;;;5058657;28;20504;-76
2023/08/05 09:34:38;;;;;;;1999.90;999.90;;;18.70;99.90;;;;;;5076135;28;20048;-76
2023/08/05 09:37:05;;;;;;;1999.90;999.90;;;18.80;99.90;;;;;;5077032;28;20375;-76
2023/08/05 09:39:51;;;;;;;1999.90;999.90;;;18.60;99.90;;;;;;5058596;28;20121;-76
2023/08/05 09:42:25;;;;;;;1999.90;999.90;;;18.80;99.90;;;;;;5058337;28;20080;-76
2023/08/05 09:44:58;;;;;;;1999.90;999.90;;;18.80;99.90;;;;;;5076665;28;20082;-76
2023/08/05 09:47:30;;;;;;;1999.90;999.90;;;18.80;99.90;;;;;;5059225;28;20094;-76
2023/08/05 09:49:59;;;;;;;1999.90;999.90;;;18.90;99.90;;;;;;5058165;28;20383;-76
2023/08/05 09:52:26;;;;;;;1999.90;999.90;;;19.00;99.90;;;;;;5058520;28;20059;-76
2023/08/05 09:55:04;;;;;;;1999.90;999.90;;;19.10;99.90;;;;;;5058119;28;20140;-75
2023/08/05 09:57:31;;;;;;;1999.90;999.90;;;19.10;99.90;;;;;;5075940;28;20052;-76
2023/08/05 09:59:58;;;;;;;1999.90;999.90;;;19.20;99.90;;;;;;5075829;28;20056;-76
2023/08/05 10:02:25;;;;;;;1999.90;999.90;;;19.30;99.90;;;;;;5075269;28;20496;-77
2023/08/05 10:04:56;;;;;;;1999.90;999.90;;;19.30;99.90;;;;;;5041917;28;20058;-77
2023/08/05 10:07:23;;;;;;;1999.90;999.90;;;19.30;99.90;;;;;;5076059;28;20154;-75
2023/08/05 10:09:50;;;;;;;1999.90;999.90;;;19.30;99.90;;;;;;5041451;28;20083;-74
2023/08/05 10:12:25;;;;;;;1999.90;999.90;;;19.40;99.90;;;;;;5075643;28;20551;-75
2023/08/05 10:14:54;;;;;;;1999.90;999.90;;;19.40;99.90;;;;;;5058007;28;20056;-75
2023/08/05 10:17:20;;;;;;;1999.90;999.90;;;19.40;99.90;;;;;;5075925;28;20084;-75
2023/08/05 10:19:50;;;;;;;1999.90;999.90;;;19.50;99.90;;;;;;5075444;28;20131;-75
2023/08/05 10:22:22;;;;;;;1999.90;999.90;;;19.50;99.90;;;;;;5075811;28;20078;-75
2023/08/05 10:25:00;;;;;;;1999.90;999.90;;;19.50;99.90;;;;;;5057804;28;20056;-75
2023/08/05 10:27:40;;;;;;;1999.90;999.90;;;19.50;99.90;;;;;;5041497;28;20052;-74
2023/08/05 10:30:14;;;;;;;1999.90;999.90;;;19.50;99.90;;;;;;5057839;28;20136;-75
2023/08/05 10:32:54;;;;;;;1999.90;999.90;;;19.50;99.90;;;;;;5058049;28;20488;-74
2023/08/05 10:35:29;;;;;;;1999.90;999.90;;;19.60;99.90;;;;;;5057750;28;20075;-75
2023/08/05 10:38:11;;;;;;;1999.90;999.90;;;19.60;99.90;;;;;;5058111;28;20098;-75
2023/08/05 10:40:48;;;;;;;1999.90;999.90;;;19.70;99.90;;;;;;5058716;28;20131;-75
2023/08/05 10:43:35;;;;;;;1999.90;999.90;;;19.60;99.90;;;;;;5058675;28;20048;-76
2023/08/05 10:46:11;;;;;;;1999.90;999.90;;;19.70;99.90;;;;;;5058560;28;20084;-76
2023/08/05 10:48:44;;;;;;;1999.90;999.90;;;19.70;99.90;;;;;;5057491;28;20079;-76
2023/08/05 10:51:14;;;;;;;1999.90;999.90;;;19.70;99.90;;;;;;5075333;28;20051;-74
2023/08/05 10:54:04;;;;;;;1999.90;999.90;;;19.80;99.90;;;;;;5057862;28;20088;-76
2023/08/05 10:56:31;;;;;;;1999.90;999.90;;;19.80;99.90;;;;;;5056654;28;20056;-76
2023/08/05 10:58:59;;;;;;;1999.90;999.90;;;19.80;99.90;;;;;;5040671;28;20479;-76
2023/08/05 11:01:51;;;;;;;1999.90;999.90;;;19.80;99.90;;;;;;5057691;28;20487;-76
2023/08/05 11:04:30;;;;;;;1999.90;999.90;;;19.80;99.90;;;;;;5041164;28;20055;-77
2023/08/05 11:06:59;;;;;;;1999.90;999.90;;;19.80;99.90;;;;;;5058033;28;20083;-77
2023/08/05 11:09:35;;;;;;;1999.90;999.90;;;19.70;99.90;;;;;;5058144;28;20047;-76
2023/08/05 11:12:01;;;;;;;1999.90;999.90;;;19.70;99.90;;;;;;5057055;28;20048;-76
2023/08/05 11:14:27;;;;;;;1999.90;999.90;;;19.70;99.90;;;;;;5074852;28;20052;-77
2023/08/05 11:17:00;;;;;;;1999.90;999.90;;;19.70;99.90;;;;;;5075609;28;20041;-76
2023/08/05 11:19:26;;;;;;;1999.90;999.90;;;19.70;99.90;;;;;;5075403;28;20052;-76
2023/08/05 11:21:52;;;;;;;1999.90;999.90;;;19.80;99.90;;;;;;5074644;28;20048;-77
2023/08/05 11:24:19;;;;;;;1999.90;999.90;;;19.80;99.90;;;;;;5057375;28;20044;-75
2023/08/05 11:26:46;;;;;;;1999.90;999.90;;;20.00;99.90;;;;;;5074535;28;20107;-76
2023/08/05 11:29:14;;;;;;;1999.90;999.90;;;20.00;99.90;;;;;;5056861;28;20139;-77
2023/08/05 11:31:50;;;;;;;1999.90;999.90;;;20.10;99.90;;;;;;5040046;28;20043;-76
2023/08/05 11:34:22;;;;;;;1999.90;999.90;;;20.10;99.90;;;;;;5057577;28;20048;-76
2023/08/05 11:36:58;;;;;;;1999.90;999.90;;;20.10;99.90;;;;;;5057267;28;20131;-76
2023/08/05 11:39:24;;;;;;;1999.90;999.90;;;20.20;99.90;;;;;;5056951;28;20150;-75
2023/08/05 11:41:50;;;;;;;1999.90;999.90;;;20.20;99.90;;;;;;5056662;28;20059;-75
2023/08/05 11:44:17;;;;;;;1999.90;999.90;;;20.30;99.90;;;;;;5056524;28;20049;-75
2023/08/05 11:46:43;;;;;;;1999.90;999.90;;;20.40;99.90;;;;;;5073681;28;20040;-75
2023/08/05 11:49:10;;;;;;;1999.90;999.90;;;20.40;99.90;;;;;;5056238;28;20051;-75
2023/08/05 11:51:49;;;;;;;1999.90;999.90;;;20.40;99.90;;;;;;5057265;28;20048;-75
2023/08/05 11:54:30;;;;;;;1999.90;999.90;;;20.50;99.90;;;;;;5057111;28;20500;-76
2023/08/05 11:56:56;;;;;;;1999.90;999.90;;;20.50;99.90;;;;;;5056363;28;20040;-76
2023/08/05 11:59:43;;;;;;;1999.90;999.90;;;20.60;99.90;;;;;;5039704;28;20058;-75
2023/08/05 12:02:10;;;;;;;1999.90;999.90;;;20.60;99.90;;;;;;5056295;28;20086;-75